sensor_id;sensor_type;location;lat;lon;timestamp;P1;durP1;ratioP1;P2;durP2;ratioP2
43449;SDS011;29041;42.266;23.110;2023-02-28T00:00:07;3.15;;;1.33;;
43449;SDS011;29041;42.266;23.110;2023-02-28T00:03:01;4.63;;;1.27;;
43449;SDS011;29041;42.266;23.110;2023-02-28T00:05:54;4.35;;;1.90;;
43449;SDS011;29041;42.266;23.110;2023-02-28T00:08:42;5.53;;;2.20;;
43449;SDS011;29041;42.266;23.110;2023-02-28T00:11:37;3.28;;;2.15;;
43449;SDS011;29041;42.266;23.110;2023-02-28T00:16:59;2.30;;;1.73;;
43449;SDS011;29041;42.266;23.110;2023-02-28T00:19:47;3.65;;;2.20;;
43449;SDS011;29041;42.266;23.110;2023-02-28T00:22:38;4.10;;;2.17;;
43449;SDS011;29041;42.266;23.110;2023-02-28T00:25:28;2.88;;;2.00;;
43449;SDS011;29041;42.266;23.110;2023-02-28T00:31:27;3.10;;;2.15;;
43449;SDS011;29041;42.266;23.110;2023-02-28T00:34:14;4.25;;;2.00;;
43449;SDS011;29041;42.266;23.110;2023-02-28T00:39:43;12.55;;;5.32;;
43449;SDS011;29041;42.266;23.110;2023-02-28T00:42:30;6.40;;;3.15;;
43449;SDS011;29041;42.266;23.110;2023-02-28T00:45:19;8.30;;;2.97;;
43449;SDS011;29041;42.266;23.110;2023-02-28T00:48:07;14.23;;;5.60;;
43449;SDS011;29041;42.266;23.110;2023-02-28T00:50:54;10.50;;;5.10;;
43449;SDS011;29041;42.266;23.110;2023-02-28T00:53:45;6.35;;;3.63;;
43449;SDS011;29041;42.266;23.110;2023-02-28T00:59:07;16.90;;;6.50;;
43449;SDS011;29041;42.266;23.110;2023-02-28T01:01:56;10.00;;;4.43;;
43449;SDS011;29041;42.266;23.110;2023-02-28T01:04:43;4.88;;;2.80;;
43449;SDS011;29041;42.266;23.110;2023-02-28T01:07:32;5.47;;;2.17;;
43449;SDS011;29041;42.266;23.110;2023-02-28T01:10:24;5.40;;;2.53;;
43449;SDS011;29041;42.266;23.110;2023-02-28T01:13:11;6.60;;;2.72;;
43449;SDS011;29041;42.266;23.110;2023-02-28T01:18:31;8.35;;;3.47;;
43449;SDS011;29041;42.266;23.110;2023-02-28T01:21:19;7.32;;;3.42;;
43449;SDS011;29041;42.266;23.110;2023-02-28T01:24:08;6.43;;;3.05;;
43449;SDS011;29041;42.266;23.110;2023-02-28T01:26:55;7.65;;;2.63;;
43449;SDS011;29041;42.266;23.110;2023-02-28T01:29:42;5.70;;;2.05;;
43449;SDS011;29041;42.266;23.110;2023-02-28T01:32:29;6.88;;;3.63;;
43449;SDS011;29041;42.266;23.110;2023-02-28T01:35:19;5.75;;;2.80;;
43449;SDS011;29041;42.266;23.110;2023-02-28T01:38:21;5.45;;;2.70;;
43449;SDS011;29041;42.266;23.110;2023-02-28T01:41:10;6.22;;;2.78;;
43449;SDS011;29041;42.266;23.110;2023-02-28T01:44:03;4.00;;;2.65;;
43449;SDS011;29041;42.266;23.110;2023-02-28T01:51:54;3.38;;;1.67;;
43449;SDS011;29041;42.266;23.110;2023-02-28T01:54:43;4.75;;;2.38;;
43449;SDS011;29041;42.266;23.110;2023-02-28T01:57:35;4.35;;;2.35;;
43449;SDS011;29041;42.266;23.110;2023-02-28T02:00:27;3.97;;;2.33;;
43449;SDS011;29041;42.266;23.110;2023-02-28T02:03:17;4.35;;;2.38;;
43449;SDS011;29041;42.266;23.110;2023-02-28T02:11:19;7.18;;;3.20;;
43449;SDS011;29041;42.266;23.110;2023-02-28T02:14:15;3.80;;;2.47;;
43449;SDS011;29041;42.266;23.110;2023-02-28T02:17:26;6.00;;;3.13;;
43449;SDS011;29041;42.266;23.110;2023-02-28T02:30:43;3.25;;;2.70;;
43449;SDS011;29041;42.266;23.110;2023-02-28T02:37:11;7.82;;;2.70;;
43449;SDS011;29041;42.266;23.110;2023-02-28T02:40:08;8.02;;;3.05;;
43449;SDS011;29041;42.266;23.110;2023-02-28T02:43:01;4.40;;;3.28;;
43449;SDS011;29041;42.266;23.110;2023-02-28T02:45:54;8.52;;;3.65;;
43449;SDS011;29041;42.266;23.110;2023-02-28T02:48:43;5.10;;;2.70;;
43449;SDS011;29041;42.266;23.110;2023-02-28T02:51:35;9.38;;;3.33;;
43449;SDS011;29041;42.266;23.110;2023-02-28T02:54:27;6.25;;;4.32;;
43449;SDS011;29041;42.266;23.110;2023-02-28T02:57:17;8.73;;;3.88;;
43449;SDS011;29041;42.266;23.110;2023-02-28T03:00:10;6.35;;;3.67;;
43449;SDS011;29041;42.266;23.110;2023-02-28T03:08:06;9.10;;;3.65;;
43449;SDS011;29041;42.266;23.110;2023-02-28T03:10:55;6.35;;;3.40;;
43449;SDS011;29041;42.266;23.110;2023-02-28T03:13:51;10.60;;;4.15;;
43449;SDS011;29041;42.266;23.110;2023-02-28T03:16:59;9.82;;;4.70;;
43449;SDS011;29041;42.266;23.110;2023-02-28T03:19:59;10.85;;;4.25;;
43449;SDS011;29041;42.266;23.110;2023-02-28T03:22:56;6.53;;;3.65;;
43449;SDS011;29041;42.266;23.110;2023-02-28T03:25:54;7.30;;;4.00;;
43449;SDS011;29041;42.266;23.110;2023-02-28T03:28:49;11.98;;;4.18;;
43449;SDS011;29041;42.266;23.110;2023-02-28T03:31:43;7.75;;;4.68;;
43449;SDS011;29041;42.266;23.110;2023-02-28T03:34:36;16.67;;;4.82;;
43449;SDS011;29041;42.266;23.110;2023-02-28T03:37:25;10.30;;;3.83;;
43449;SDS011;29041;42.266;23.110;2023-02-28T03:42:54;14.30;;;4.90;;
43449;SDS011;29041;42.266;23.110;2023-02-28T03:45:45;7.65;;;3.70;;
43449;SDS011;29041;42.266;23.110;2023-02-28T03:48:39;11.32;;;5.25;;
43449;SDS011;29041;42.266;23.110;2023-02-28T03:56:42;9.05;;;4.18;;
43449;SDS011;29041;42.266;23.110;2023-02-28T03:59:37;14.80;;;5.53;;
43449;SDS011;29041;42.266;23.110;2023-02-28T04:05:04;12.15;;;5.88;;
43449;SDS011;29041;42.266;23.110;2023-02-28T04:10:26;14.02;;;5.80;;
43449;SDS011;29041;42.266;23.110;2023-02-28T04:13:14;12.13;;;5.88;;
43449;SDS011;29041;42.266;23.110;2023-02-28T04:16:02;9.40;;;3.97;;
43449;SDS011;29041;42.266;23.110;2023-02-28T04:19:08;25.58;;;12.15;;
43449;SDS011;29041;42.266;23.110;2023-02-28T04:21:56;7.95;;;4.78;;
43449;SDS011;29041;42.266;23.110;2023-02-28T04:24:43;12.57;;;5.32;;
43449;SDS011;29041;42.266;23.110;2023-02-28T04:30:06;13.30;;;6.03;;
43449;SDS011;29041;42.266;23.110;2023-02-28T04:32:58;18.88;;;8.90;;
43449;SDS011;29041;42.266;23.110;2023-02-28T04:38:43;11.93;;;6.47;;
43449;SDS011;29041;42.266;23.110;2023-02-28T04:41:31;44.55;;;18.80;;
43449;SDS011;29041;42.266;23.110;2023-02-28T04:44:18;15.10;;;6.57;;
43449;SDS011;29041;42.266;23.110;2023-02-28T04:47:05;17.50;;;8.85;;
43449;SDS011;29041;42.266;23.110;2023-02-28T04:57:40;15.95;;;7.32;;
43449;SDS011;29041;42.266;23.110;2023-02-28T05:00:28;22.95;;;8.00;;
43449;SDS011;29041;42.266;23.110;2023-02-28T05:03:16;14.77;;;5.82;;
43449;SDS011;29041;42.266;23.110;2023-02-28T05:06:03;15.18;;;6.88;;
43449;SDS011;29041;42.266;23.110;2023-02-28T05:08:51;20.92;;;7.20;;
43449;SDS011;29041;42.266;23.110;2023-02-28T05:14:54;15.38;;;5.95;;
43449;SDS011;29041;42.266;23.110;2023-02-28T05:17:43;16.00;;;8.40;;
43449;SDS011;29041;42.266;23.110;2023-02-28T05:20:31;19.58;;;7.40;;
43449;SDS011;29041;42.266;23.110;2023-02-28T05:26:42;12.55;;;5.85;;
43449;SDS011;29041;42.266;23.110;2023-02-28T05:29:50;12.88;;;5.38;;
43449;SDS011;29041;42.266;23.110;2023-02-28T05:32:40;13.10;;;6.97;;
43449;SDS011;29041;42.266;23.110;2023-02-28T05:38:48;18.23;;;8.57;;
43449;SDS011;29041;42.266;23.110;2023-02-28T05:41:45;14.73;;;7.63;;
43449;SDS011;29041;42.266;23.110;2023-02-28T06:02:39;13.73;;;6.97;;
43449;SDS011;29041;42.266;23.110;2023-02-28T06:05:27;15.95;;;6.35;;
43449;SDS011;29041;42.266;23.110;2023-02-28T06:10:46;13.32;;;6.20;;
43449;SDS011;29041;42.266;23.110;2023-02-28T06:13:41;12.73;;;6.57;;
43449;SDS011;29041;42.266;23.110;2023-02-28T06:16:45;15.07;;;6.68;;
43449;SDS011;29041;42.266;23.110;2023-02-28T06:19:37;12.25;;;6.70;;
43449;SDS011;29041;42.266;23.110;2023-02-28T06:22:30;14.25;;;6.10;;
43449;SDS011;29041;42.266;23.110;2023-02-28T06:25:19;12.48;;;4.97;;
43449;SDS011;29041;42.266;23.110;2023-02-28T06:28:27;11.40;;;5.22;;
43449;SDS011;29041;42.266;23.110;2023-02-28T06:31:16;9.00;;;4.43;;
43449;SDS011;29041;42.266;23.110;2023-02-28T06:34:05;10.55;;;5.68;;
43449;SDS011;29041;42.266;23.110;2023-02-28T06:37:01;8.05;;;4.72;;
43449;SDS011;29041;42.266;23.110;2023-02-28T06:40:02;8.18;;;3.42;;
43449;SDS011;29041;42.266;23.110;2023-02-28T06:42:55;10.35;;;3.25;;
43449;SDS011;29041;42.266;23.110;2023-02-28T06:45:43;7.53;;;3.22;;
43449;SDS011;29041;42.266;23.110;2023-02-28T06:48:31;7.50;;;4.18;;
43449;SDS011;29041;42.266;23.110;2023-02-28T06:51:22;9.40;;;3.58;;
43449;SDS011;29041;42.266;23.110;2023-02-28T06:57:09;18.65;;;7.28;;
43449;SDS011;29041;42.266;23.110;2023-02-28T06:59:57;13.00;;;4.13;;
43449;SDS011;29041;42.266;23.110;2023-02-28T07:03:02;7.07;;;3.63;;
43449;SDS011;29041;42.266;23.110;2023-02-28T07:05:52;7.63;;;3.85;;
43449;SDS011;29041;42.266;23.110;2023-02-28T07:08:42;13.10;;;6.90;;
43449;SDS011;29041;42.266;23.110;2023-02-28T07:11:34;41.30;;;20.40;;
43449;SDS011;29041;42.266;23.110;2023-02-28T07:14:26;15.25;;;8.40;;
43449;SDS011;29041;42.266;23.110;2023-02-28T07:17:13;6.18;;;4.25;;
43449;SDS011;29041;42.266;23.110;2023-02-28T07:20:01;7.93;;;5.03;;
43449;SDS011;29041;42.266;23.110;2023-02-28T07:25:15;6.15;;;4.22;;
43449;SDS011;29041;42.266;23.110;2023-02-28T07:28:18;9.15;;;3.92;;
43449;SDS011;29041;42.266;23.110;2023-02-28T07:31:08;7.40;;;3.75;;
43449;SDS011;29041;42.266;23.110;2023-02-28T07:33:57;11.15;;;4.38;;
43449;SDS011;29041;42.266;23.110;2023-02-28T07:36:45;8.27;;;4.30;;
43449;SDS011;29041;42.266;23.110;2023-02-28T07:39:39;8.70;;;4.00;;
43449;SDS011;29041;42.266;23.110;2023-02-28T07:42:37;7.47;;;4.15;;
43449;SDS011;29041;42.266;23.110;2023-02-28T07:45:41;6.07;;;3.55;;
43449;SDS011;29041;42.266;23.110;2023-02-28T07:48:33;7.10;;;4.03;;
43449;SDS011;29041;42.266;23.110;2023-02-28T07:51:22;7.97;;;4.18;;
43449;SDS011;29041;42.266;23.110;2023-02-28T07:54:10;8.40;;;4.75;;
43449;SDS011;29041;42.266;23.110;2023-02-28T07:56:59;10.20;;;4.38;;
43449;SDS011;29041;42.266;23.110;2023-02-28T08:00:02;13.50;;;4.80;;
43449;SDS011;29041;42.266;23.110;2023-02-28T08:05:44;5.03;;;3.58;;
43449;SDS011;29041;42.266;23.110;2023-02-28T08:08:55;6.57;;;2.90;;
43449;SDS011;29041;42.266;23.110;2023-02-28T08:11:48;7.72;;;4.32;;
43449;SDS011;29041;42.266;23.110;2023-02-28T08:14:44;12.25;;;5.78;;
43449;SDS011;29041;42.266;23.110;2023-02-28T08:17:38;12.45;;;7.00;;
43449;SDS011;29041;42.266;23.110;2023-02-28T08:20:29;6.68;;;4.10;;
43449;SDS011;29041;42.266;23.110;2023-02-28T08:23:24;10.00;;;3.38;;
43449;SDS011;29041;42.266;23.110;2023-02-28T08:26:27;8.95;;;3.83;;
43449;SDS011;29041;42.266;23.110;2023-02-28T08:29:29;7.75;;;5.22;;
43449;SDS011;29041;42.266;23.110;2023-02-28T08:32:18;8.50;;;5.72;;
43449;SDS011;29041;42.266;23.110;2023-02-28T08:35:12;5.47;;;4.18;;
43449;SDS011;29041;42.266;23.110;2023-02-28T08:38:20;10.25;;;5.03;;
43449;SDS011;29041;42.266;23.110;2023-02-28T08:41:09;7.70;;;4.32;;
43449;SDS011;29041;42.266;23.110;2023-02-28T08:46:59;14.00;;;5.40;;
43449;SDS011;29041;42.266;23.110;2023-02-28T08:49:57;10.70;;;5.65;;
43449;SDS011;29041;42.266;23.110;2023-02-28T08:53:02;6.75;;;4.38;;
43449;SDS011;29041;42.266;23.110;2023-02-28T08:56:02;8.30;;;5.75;;
43449;SDS011;29041;42.266;23.110;2023-02-28T08:58:58;8.05;;;4.65;;
43449;SDS011;29041;42.266;23.110;2023-02-28T09:02:11;8.90;;;4.60;;
43449;SDS011;29041;42.266;23.110;2023-02-28T09:05:05;6.35;;;4.55;;
43449;SDS011;29041;42.266;23.110;2023-02-28T09:08:13;7.32;;;3.90;;
43449;SDS011;29041;42.266;23.110;2023-02-28T09:11:37;8.50;;;3.83;;
43449;SDS011;29041;42.266;23.110;2023-02-28T09:14:58;10.40;;;3.83;;
43449;SDS011;29041;42.266;23.110;2023-02-28T09:17:51;10.68;;;4.28;;
43449;SDS011;29041;42.266;23.110;2023-02-28T09:20:44;7.70;;;3.65;;
43449;SDS011;29041;42.266;23.110;2023-02-28T09:23:35;12.10;;;4.35;;
43449;SDS011;29041;42.266;23.110;2023-02-28T09:48:46;12.43;;;5.10;;
43449;SDS011;29041;42.266;23.110;2023-02-28T10:50:52;9.57;;;4.90;;
43449;SDS011;29041;42.266;23.110;2023-02-28T11:44:05;12.45;;;4.93;;
43449;SDS011;29041;42.266;23.110;2023-02-28T11:47:15;7.82;;;3.95;;
43449;SDS011;29041;42.266;23.110;2023-02-28T12:00:57;9.68;;;4.60;;
43449;SDS011;29041;42.266;23.110;2023-02-28T12:06:46;11.68;;;3.80;;
43449;SDS011;29041;42.266;23.110;2023-02-28T12:09:48;9.80;;;4.47;;
43449;SDS011;29041;42.266;23.110;2023-02-28T12:12:44;6.85;;;3.88;;
43449;SDS011;29041;42.266;23.110;2023-02-28T12:16:00;7.13;;;4.22;;
43449;SDS011;29041;42.266;23.110;2023-02-28T12:19:09;13.70;;;4.75;;
43449;SDS011;29041;42.266;23.110;2023-02-28T12:22:12;8.18;;;3.42;;
43449;SDS011;29041;42.266;23.110;2023-02-28T12:28:37;6.22;;;3.92;;
43449;SDS011;29041;42.266;23.110;2023-02-28T12:31:49;11.52;;;4.75;;
43449;SDS011;29041;42.266;23.110;2023-02-28T12:35:04;8.95;;;4.03;;
43449;SDS011;29041;42.266;23.110;2023-02-28T12:38:06;10.05;;;5.72;;
43449;SDS011;29041;42.266;23.110;2023-02-28T12:41:08;12.32;;;4.40;;
43449;SDS011;29041;42.266;23.110;2023-02-28T12:44:06;9.18;;;4.70;;
43449;SDS011;29041;42.266;23.110;2023-02-28T13:11:56;11.90;;;4.78;;
43449;SDS011;29041;42.266;23.110;2023-02-28T13:14:51;12.82;;;4.57;;
43449;SDS011;29041;42.266;23.110;2023-02-28T13:18:01;7.18;;;4.80;;
43449;SDS011;29041;42.266;23.110;2023-02-28T13:20:52;11.43;;;4.50;;
43449;SDS011;29041;42.266;23.110;2023-02-28T13:23:56;15.73;;;5.13;;
43449;SDS011;29041;42.266;23.110;2023-02-28T14:03:07;12.45;;;5.72;;
43449;SDS011;29041;42.266;23.110;2023-02-28T14:06:18;10.00;;;4.07;;
43449;SDS011;29041;42.266;23.110;2023-02-28T14:09:17;7.45;;;4.25;;
43449;SDS011;29041;42.266;23.110;2023-02-28T14:15:50;9.25;;;3.70;;
43449;SDS011;29041;42.266;23.110;2023-02-28T14:18:49;12.30;;;4.50;;
43449;SDS011;29041;42.266;23.110;2023-02-28T14:21:47;10.75;;;4.00;;
43449;SDS011;29041;42.266;23.110;2023-02-28T14:24:54;12.23;;;4.93;;
43449;SDS011;29041;42.266;23.110;2023-02-28T14:27:58;8.38;;;4.05;;
43449;SDS011;29041;42.266;23.110;2023-02-28T14:31:01;9.82;;;4.43;;
43449;SDS011;29041;42.266;23.110;2023-02-28T14:34:17;12.50;;;5.22;;
43449;SDS011;29041;42.266;23.110;2023-02-28T14:37:24;10.25;;;5.13;;
43449;SDS011;29041;42.266;23.110;2023-02-28T14:40:15;7.25;;;4.43;;
43449;SDS011;29041;42.266;23.110;2023-02-28T14:45:43;10.25;;;5.50;;
43449;SDS011;29041;42.266;23.110;2023-02-28T14:48:41;8.48;;;4.13;;
43449;SDS011;29041;42.266;23.110;2023-02-28T14:51:41;10.63;;;5.28;;
43449;SDS011;29041;42.266;23.110;2023-02-28T14:54:29;8.57;;;4.65;;
43449;SDS011;29041;42.266;23.110;2023-02-28T14:57:22;9.55;;;4.78;;
43449;SDS011;29041;42.266;23.110;2023-02-28T15:00:21;10.35;;;4.47;;
43449;SDS011;29041;42.266;23.110;2023-02-28T15:03:27;14.52;;;5.07;;
43449;SDS011;29041;42.266;23.110;2023-02-28T15:06:12;16.80;;;5.65;;
43449;SDS011;29041;42.266;23.110;2023-02-28T15:09:36;10.02;;;4.63;;
43449;SDS011;29041;42.266;23.110;2023-02-28T15:12:28;8.52;;;4.20;;
43449;SDS011;29041;42.266;23.110;2023-02-28T15:15:20;6.75;;;3.72;;
43449;SDS011;29041;42.266;23.110;2023-02-28T15:18:15;7.53;;;4.35;;
43449;SDS011;29041;42.266;23.110;2023-02-28T15:21:13;10.32;;;4.55;;
43449;SDS011;29041;42.266;23.110;2023-02-28T15:24:08;13.48;;;5.45;;
43449;SDS011;29041;42.266;23.110;2023-02-28T15:27:04;11.00;;;4.80;;
43449;SDS011;29041;42.266;23.110;2023-02-28T15:29:55;11.23;;;4.22;;
43449;SDS011;29041;42.266;23.110;2023-02-28T15:36:11;11.25;;;4.80;;
43449;SDS011;29041;42.266;23.110;2023-02-28T15:39:18;9.00;;;5.63;;
43449;SDS011;29041;42.266;23.110;2023-02-28T15:42:16;10.38;;;4.65;;
43449;SDS011;29041;42.266;23.110;2023-02-28T15:48:18;12.45;;;5.75;;
43449;SDS011;29041;42.266;23.110;2023-02-28T15:51:07;15.40;;;5.03;;
43449;SDS011;29041;42.266;23.110;2023-02-28T15:54:04;12.00;;;5.43;;
43449;SDS011;29041;42.266;23.110;2023-02-28T15:56:57;6.50;;;3.83;;
43449;SDS011;29041;42.266;23.110;2023-02-28T15:59:50;7.38;;;3.33;;
43449;SDS011;29041;42.266;23.110;2023-02-28T16:02:41;8.50;;;4.03;;
43449;SDS011;29041;42.266;23.110;2023-02-28T16:05:29;6.60;;;3.72;;
43449;SDS011;29041;42.266;23.110;2023-02-28T16:08:18;5.90;;;4.00;;
43449;SDS011;29041;42.266;23.110;2023-02-28T16:11:07;4.35;;;3.05;;
43449;SDS011;29041;42.266;23.110;2023-02-28T16:13:59;5.35;;;2.67;;
43449;SDS011;29041;42.266;23.110;2023-02-28T16:16:56;4.80;;;3.05;;
43449;SDS011;29041;42.266;23.110;2023-02-28T16:20:05;5.65;;;3.60;;
43449;SDS011;29041;42.266;23.110;2023-02-28T16:23:08;9.15;;;4.07;;
43449;SDS011;29041;42.266;23.110;2023-02-28T16:25:56;6.25;;;2.55;;
43449;SDS011;29041;42.266;23.110;2023-02-28T16:59:41;8.43;;;3.25;;
43449;SDS011;29041;42.266;23.110;2023-02-28T17:23:57;5.05;;;2.83;;
43449;SDS011;29041;42.266;23.110;2023-02-28T17:31:57;5.80;;;3.05;;
43449;SDS011;29041;42.266;23.110;2023-02-28T17:34:56;4.38;;;2.38;;
43449;SDS011;29041;42.266;23.110;2023-02-28T17:41:03;3.10;;;2.13;;
43449;SDS011;29041;42.266;23.110;2023-02-28T17:47:29;4.38;;;2.33;;
43449;SDS011;29041;42.266;23.110;2023-02-28T18:20:43;3.35;;;1.95;;
43449;SDS011;29041;42.266;23.110;2023-02-28T18:23:35;3.88;;;2.53;;
43449;SDS011;29041;42.266;23.110;2023-02-28T18:26:35;3.25;;;2.17;;
43449;SDS011;29041;42.266;23.110;2023-02-28T18:29:27;4.32;;;1.98;;
43449;SDS011;29041;42.266;23.110;2023-02-28T18:32:39;3.60;;;1.95;;
43449;SDS011;29041;42.266;23.110;2023-02-28T18:35:29;4.50;;;2.17;;
43449;SDS011;29041;42.266;23.110;2023-02-28T18:38:20;4.88;;;2.35;;
43449;SDS011;29041;42.266;23.110;2023-02-28T18:41:09;3.03;;;2.33;;
43449;SDS011;29041;42.266;23.110;2023-02-28T18:43:57;4.72;;;2.55;;
43449;SDS011;29041;42.266;23.110;2023-02-28T18:46:51;3.90;;;1.60;;
43449;SDS011;29041;42.266;23.110;2023-02-28T18:49:39;3.40;;;2.58;;
43449;SDS011;29041;42.266;23.110;2023-02-28T18:52:28;4.28;;;2.75;;
43449;SDS011;29041;42.266;23.110;2023-02-28T18:55:17;2.40;;;1.58;;
43449;SDS011;29041;42.266;23.110;2023-02-28T18:58:08;4.70;;;2.80;;
43449;SDS011;29041;42.266;23.110;2023-02-28T19:00:57;2.30;;;1.25;;
43449;SDS011;29041;42.266;23.110;2023-02-28T19:03:46;4.65;;;2.42;;
43449;SDS011;29041;42.266;23.110;2023-02-28T19:06:35;4.75;;;2.83;;
43449;SDS011;29041;42.266;23.110;2023-02-28T19:09:30;4.72;;;2.22;;
43449;SDS011;29041;42.266;23.110;2023-02-28T19:26:27;4.13;;;2.00;;
43449;SDS011;29041;42.266;23.110;2023-02-28T19:29:18;2.42;;;1.75;;
43449;SDS011;29041;42.266;23.110;2023-02-28T19:32:06;3.80;;;2.05;;
43449;SDS011;29041;42.266;23.110;2023-02-28T19:34:59;3.88;;;2.05;;
43449;SDS011;29041;42.266;23.110;2023-02-28T19:40:39;4.03;;;2.03;;
43449;SDS011;29041;42.266;23.110;2023-02-28T19:43:38;2.08;;;1.42;;
43449;SDS011;29041;42.266;23.110;2023-02-28T19:46:27;1.90;;;1.42;;
43449;SDS011;29041;42.266;23.110;2023-02-28T19:49:15;5.25;;;2.53;;
43449;SDS011;29041;42.266;23.110;2023-02-28T19:52:07;1.80;;;1.40;;
43449;SDS011;29041;42.266;23.110;2023-02-28T19:54:57;2.55;;;1.52;;
43449;SDS011;29041;42.266;23.110;2023-02-28T19:57:45;2.70;;;1.75;;
43449;SDS011;29041;42.266;23.110;2023-02-28T20:00:37;3.63;;;1.92;;
43449;SDS011;29041;42.266;23.110;2023-02-28T20:03:24;1.95;;;1.23;;
43449;SDS011;29041;42.266;23.110;2023-02-28T20:06:12;3.28;;;1.67;;
43449;SDS011;29041;42.266;23.110;2023-02-28T20:09:05;1.98;;;1.23;;
43449;SDS011;29041;42.266;23.110;2023-02-28T20:11:52;3.42;;;1.70;;
43449;SDS011;29041;42.266;23.110;2023-02-28T20:14:43;3.33;;;1.65;;
43449;SDS011;29041;42.266;23.110;2023-02-28T20:17:35;2.78;;;1.45;;
43449;SDS011;29041;42.266;23.110;2023-02-28T20:20:22;1.15;;;0.90;;
43449;SDS011;29041;42.266;23.110;2023-02-28T20:23:10;1.70;;;0.90;;
43449;SDS011;29041;42.266;23.110;2023-02-28T20:25:57;1.80;;;1.33;;
43449;SDS011;29041;42.266;23.110;2023-02-28T20:28:45;3.85;;;1.70;;
43449;SDS011;29041;42.266;23.110;2023-02-28T20:31:34;3.03;;;1.55;;
43449;SDS011;29041;42.266;23.110;2023-02-28T20:34:24;2.03;;;1.38;;
43449;SDS011;29041;42.266;23.110;2023-02-28T20:37:11;0.90;;;0.60;;
43449;SDS011;29041;42.266;23.110;2023-02-28T20:39:58;1.20;;;0.77;;
43449;SDS011;29041;42.266;23.110;2023-02-28T20:42:45;2.13;;;1.42;;
43449;SDS011;29041;42.266;23.110;2023-02-28T20:45:33;1.02;;;0.80;;
43449;SDS011;29041;42.266;23.110;2023-02-28T20:48:21;1.00;;;0.85;;
43449;SDS011;29041;42.266;23.110;2023-02-28T20:51:10;1.83;;;1.23;;
43449;SDS011;29041;42.266;23.110;2023-02-28T20:53:57;3.63;;;1.35;;
43449;SDS011;29041;42.266;23.110;2023-02-28T20:56:44;2.03;;;1.38;;
43449;SDS011;29041;42.266;23.110;2023-02-28T20:59:32;2.95;;;1.58;;
43449;SDS011;29041;42.266;23.110;2023-02-28T21:02:19;2.50;;;0.95;;
43449;SDS011;29041;42.266;23.110;2023-02-28T21:05:07;4.40;;;1.80;;
43449;SDS011;29041;42.266;23.110;2023-02-28T21:07:58;2.50;;;1.20;;
43449;SDS011;29041;42.266;23.110;2023-02-28T21:10:45;2.00;;;0.90;;
43449;SDS011;29041;42.266;23.110;2023-02-28T21:13:33;1.73;;;1.33;;
43449;SDS011;29041;42.266;23.110;2023-02-28T21:16:21;2.67;;;1.40;;
43449;SDS011;29041;42.266;23.110;2023-02-28T21:19:25;2.88;;;1.48;;
43449;SDS011;29041;42.266;23.110;2023-02-28T21:22:15;7.35;;;2.78;;
43449;SDS011;29041;42.266;23.110;2023-02-28T21:25:05;3.85;;;1.95;;
43449;SDS011;29041;42.266;23.110;2023-02-28T21:27:53;2.78;;;1.23;;
43449;SDS011;29041;42.266;23.110;2023-02-28T21:30:41;4.20;;;1.60;;
43449;SDS011;29041;42.266;23.110;2023-02-28T21:33:28;5.10;;;1.70;;
43449;SDS011;29041;42.266;23.110;2023-02-28T21:36:17;2.95;;;1.60;;
43449;SDS011;29041;42.266;23.110;2023-02-28T21:39:06;2.63;;;1.02;;
43449;SDS011;29041;42.266;23.110;2023-02-28T21:47:09;1.75;;;1.20;;
43449;SDS011;29041;42.266;23.110;2023-02-28T21:58:26;3.75;;;1.35;;
43449;SDS011;29041;42.266;23.110;2023-02-28T22:01:14;4.10;;;1.55;;
43449;SDS011;29041;42.266;23.110;2023-02-28T22:04:05;1.60;;;1.00;;
43449;SDS011;29041;42.266;23.110;2023-02-28T22:06:54;2.78;;;1.63;;
43449;SDS011;29041;42.266;23.110;2023-02-28T22:09:42;4.13;;;2.22;;
43449;SDS011;29041;42.266;23.110;2023-02-28T22:12:29;3.58;;;1.70;;
43449;SDS011;29041;42.266;23.110;2023-02-28T22:15:17;3.45;;;1.35;;
43449;SDS011;29041;42.266;23.110;2023-02-28T22:18:07;4.00;;;1.65;;
43449;SDS011;29041;42.266;23.110;2023-02-28T22:21:04;8.57;;;1.40;;
43449;SDS011;29041;42.266;23.110;2023-02-28T22:23:54;2.47;;;1.35;;
43449;SDS011;29041;42.266;23.110;2023-02-28T22:26:41;2.47;;;1.20;;
43449;SDS011;29041;42.266;23.110;2023-02-28T22:29:31;1.52;;;1.20;;
43449;SDS011;29041;42.266;23.110;2023-02-28T22:32:19;3.55;;;1.52;;
43449;SDS011;29041;42.266;23.110;2023-02-28T22:35:06;2.65;;;1.77;;
43449;SDS011;29041;42.266;23.110;2023-02-28T22:41:23;1.30;;;0.80;;
43449;SDS011;29041;42.266;23.110;2023-02-28T22:44:12;1.30;;;0.95;;
43449;SDS011;29041;42.266;23.110;2023-02-28T22:47:07;2.00;;;1.20;;
43449;SDS011;29041;42.266;23.110;2023-02-28T22:49:57;3.75;;;1.52;;
43449;SDS011;29041;42.266;23.110;2023-02-28T22:52:44;3.38;;;2.10;;
43449;SDS011;29041;42.266;23.110;2023-02-28T22:55:32;1.40;;;0.90;;
43449;SDS011;29041;42.266;23.110;2023-02-28T22:58:20;3.15;;;1.63;;
43449;SDS011;29041;42.266;23.110;2023-02-28T23:01:11;2.70;;;1.40;;
43449;SDS011;29041;42.266;23.110;2023-02-28T23:03:59;1.48;;;1.35;;
43449;SDS011;29041;42.266;23.110;2023-02-28T23:06:47;1.38;;;0.80;;
43449;SDS011;29041;42.266;23.110;2023-02-28T23:09:34;2.90;;;1.58;;
43449;SDS011;29041;42.266;23.110;2023-02-28T23:12:21;1.38;;;0.93;;
43449;SDS011;29041;42.266;23.110;2023-02-28T23:15:11;1.75;;;1.13;;
43449;SDS011;29041;42.266;23.110;2023-02-28T23:17:58;2.33;;;1.55;;
43449;SDS011;29041;42.266;23.110;2023-02-28T23:20:46;2.38;;;1.20;;
43449;SDS011;29041;42.266;23.110;2023-02-28T23:23:33;2.88;;;1.67;;
43449;SDS011;29041;42.266;23.110;2023-02-28T23:26:21;1.58;;;1.05;;
43449;SDS011;29041;42.266;23.110;2023-02-28T23:29:08;3.03;;;1.15;;
43449;SDS011;29041;42.266;23.110;2023-02-28T23:31:58;2.53;;;0.98;;
43449;SDS011;29041;42.266;23.110;2023-02-28T23:34:45;8.30;;;3.22;;
43449;SDS011;29041;42.266;23.110;2023-02-28T23:37:33;4.38;;;2.08;;
43449;SDS011;29041;42.266;23.110;2023-02-28T23:40:20;3.60;;;1.65;;
43449;SDS011;29041;42.266;23.110;2023-02-28T23:43:07;2.13;;;1.50;;
43449;SDS011;29041;42.266;23.110;2023-02-28T23:45:55;3.92;;;1.38;;
43449;SDS011;29041;42.266;23.110;2023-02-28T23:48:44;2.40;;;1.63;;
43449;SDS011;29041;42.266;23.110;2023-02-28T23:51:31;1.15;;;1.02;;
43449;SDS011;29041;42.266;23.110;2023-02-28T23:54:18;1.98;;;1.10;;
43449;SDS011;29041;42.266;23.110;2023-02-28T23:57:08;2.22;;;1.23;;
43449;SDS011;29041;42.266;23.110;2023-02-28T23:59:56;5.30;;;2.13;;
